sensor_id;sensor_type;location;lat;lon;timestamp;P1;durP1;ratioP1;P2;durP2;ratioP2
74044;SDS011;62389;51.412;5.436;2024-01-30T00:02:12;7.88;;;5.18;;
74044;SDS011;62389;51.412;5.436;2024-01-30T00:04:37;9.75;;;6.22;;
74044;SDS011;62389;51.412;5.436;2024-01-30T00:07:03;10.88;;;6.47;;
74044;SDS011;62389;51.412;5.436;2024-01-30T00:09:28;9.85;;;5.13;;
74044;SDS011;62389;51.412;5.436;2024-01-30T00:11:54;8.65;;;5.78;;
74044;SDS011;62389;51.412;5.436;2024-01-30T00:14:19;8.40;;;5.22;;
74044;SDS011;62389;51.412;5.436;2024-01-30T00:16:45;9.00;;;5.95;;
74044;SDS011;62389;51.412;5.436;2024-01-30T00:19:10;8.43;;;5.70;;
74044;SDS011;62389;51.412;5.436;2024-01-30T00:21:36;10.65;;;5.90;;
74044;SDS011;62389;51.412;5.436;2024-01-30T00:24:01;7.70;;;4.70;;
74044;SDS011;62389;51.412;5.436;2024-01-30T00:26:26;10.27;;;5.85;;
74044;SDS011;62389;51.412;5.436;2024-01-30T00:28:52;9.93;;;5.82;;
74044;SDS011;62389;51.412;5.436;2024-01-30T00:31:17;9.52;;;5.82;;
74044;SDS011;62389;51.412;5.436;2024-01-30T00:33:43;8.85;;;5.38;;
74044;SDS011;62389;51.412;5.436;2024-01-30T00:36:09;10.05;;;5.53;;
74044;SDS011;62389;51.412;5.436;2024-01-30T00:38:35;9.60;;;5.85;;
74044;SDS011;62389;51.412;5.436;2024-01-30T00:41:00;8.90;;;5.82;;
74044;SDS011;62389;51.412;5.436;2024-01-30T00:43:27;11.60;;;6.40;;
74044;SDS011;62389;51.412;5.436;2024-01-30T00:45:52;10.73;;;5.78;;
74044;SDS011;62389;51.412;5.436;2024-01-30T00:48:18;9.30;;;6.55;;
74044;SDS011;62389;51.412;5.436;2024-01-30T00:50:43;9.65;;;5.70;;
74044;SDS011;62389;51.412;5.436;2024-01-30T00:53:09;10.85;;;6.05;;
74044;SDS011;62389;51.412;5.436;2024-01-30T00:55:35;10.95;;;5.85;;
74044;SDS011;62389;51.412;5.436;2024-01-30T00:58:00;10.10;;;5.90;;
74044;SDS011;62389;51.412;5.436;2024-01-30T01:00:25;9.27;;;5.43;;
74044;SDS011;62389;51.412;5.436;2024-01-30T01:02:54;9.50;;;5.53;;
74044;SDS011;62389;51.412;5.436;2024-01-30T01:05:20;10.45;;;6.05;;
74044;SDS011;62389;51.412;5.436;2024-01-30T01:07:45;11.68;;;5.82;;
74044;SDS011;62389;51.412;5.436;2024-01-30T01:10:12;8.35;;;5.40;;
74044;SDS011;62389;51.412;5.436;2024-01-30T01:12:38;10.82;;;6.10;;
74044;SDS011;62389;51.412;5.436;2024-01-30T01:15:05;8.98;;;5.30;;
74044;SDS011;62389;51.412;5.436;2024-01-30T01:17:34;9.70;;;5.25;;
74044;SDS011;62389;51.412;5.436;2024-01-30T01:19:59;9.77;;;5.13;;
74044;SDS011;62389;51.412;5.436;2024-01-30T01:22:25;8.40;;;4.68;;
74044;SDS011;62389;51.412;5.436;2024-01-30T01:24:50;10.00;;;5.68;;
74044;SDS011;62389;51.412;5.436;2024-01-30T01:27:16;10.68;;;5.75;;
74044;SDS011;62389;51.412;5.436;2024-01-30T01:29:41;8.63;;;5.25;;
74044;SDS011;62389;51.412;5.436;2024-01-30T01:32:07;8.43;;;5.15;;
74044;SDS011;62389;51.412;5.436;2024-01-30T01:34:32;10.10;;;5.80;;
74044;SDS011;62389;51.412;5.436;2024-01-30T01:36:58;9.98;;;5.82;;
74044;SDS011;62389;51.412;5.436;2024-01-30T01:39:23;8.43;;;5.03;;
74044;SDS011;62389;51.412;5.436;2024-01-30T01:41:48;8.38;;;5.03;;
74044;SDS011;62389;51.412;5.436;2024-01-30T01:44:14;9.48;;;5.45;;
74044;SDS011;62389;51.412;5.436;2024-01-30T01:46:39;9.73;;;5.18;;
74044;SDS011;62389;51.412;5.436;2024-01-30T01:49:05;8.75;;;5.30;;
74044;SDS011;62389;51.412;5.436;2024-01-30T01:51:33;10.60;;;6.03;;
74044;SDS011;62389;51.412;5.436;2024-01-30T01:54:02;9.68;;;4.97;;
74044;SDS011;62389;51.412;5.436;2024-01-30T01:56:29;8.98;;;5.30;;
74044;SDS011;62389;51.412;5.436;2024-01-30T01:58:55;10.00;;;5.45;;
74044;SDS011;62389;51.412;5.436;2024-01-30T02:01:25;9.65;;;5.03;;
74044;SDS011;62389;51.412;5.436;2024-01-30T02:03:52;9.40;;;5.40;;
74044;SDS011;62389;51.412;5.436;2024-01-30T02:06:17;10.30;;;5.28;;
74044;SDS011;62389;51.412;5.436;2024-01-30T02:08:44;9.75;;;5.10;;
74044;SDS011;62389;51.412;5.436;2024-01-30T02:11:09;9.93;;;5.85;;
74044;SDS011;62389;51.412;5.436;2024-01-30T02:13:35;8.35;;;5.07;;
74044;SDS011;62389;51.412;5.436;2024-01-30T02:16:01;12.48;;;5.28;;
74044;SDS011;62389;51.412;5.436;2024-01-30T02:18:26;9.98;;;5.05;;
74044;SDS011;62389;51.412;5.436;2024-01-30T02:20:54;8.77;;;5.00;;
74044;SDS011;62389;51.412;5.436;2024-01-30T02:23:22;10.57;;;5.07;;
74044;SDS011;62389;51.412;5.436;2024-01-30T02:25:49;9.10;;;5.15;;
74044;SDS011;62389;51.412;5.436;2024-01-30T02:28:15;8.98;;;4.85;;
74044;SDS011;62389;51.412;5.436;2024-01-30T02:30:42;7.90;;;5.15;;
74044;SDS011;62389;51.412;5.436;2024-01-30T02:33:08;9.85;;;5.45;;
74044;SDS011;62389;51.412;5.436;2024-01-30T02:35:33;10.38;;;5.10;;
74044;SDS011;62389;51.412;5.436;2024-01-30T02:37:59;9.10;;;5.13;;
74044;SDS011;62389;51.412;5.436;2024-01-30T02:40:24;8.43;;;5.57;;
74044;SDS011;62389;51.412;5.436;2024-01-30T02:42:50;10.48;;;5.68;;
74044;SDS011;62389;51.412;5.436;2024-01-30T02:45:15;10.05;;;5.35;;
74044;SDS011;62389;51.412;5.436;2024-01-30T02:47:41;9.55;;;5.55;;
74044;SDS011;62389;51.412;5.436;2024-01-30T02:50:06;10.50;;;5.65;;
74044;SDS011;62389;51.412;5.436;2024-01-30T02:52:32;8.90;;;4.93;;
74044;SDS011;62389;51.412;5.436;2024-01-30T02:54:57;10.00;;;5.50;;
74044;SDS011;62389;51.412;5.436;2024-01-30T02:57:23;9.73;;;5.43;;
74044;SDS011;62389;51.412;5.436;2024-01-30T02:59:48;11.27;;;5.30;;
74044;SDS011;62389;51.412;5.436;2024-01-30T03:02:14;10.93;;;5.47;;
74044;SDS011;62389;51.412;5.436;2024-01-30T03:04:42;10.43;;;4.90;;
74044;SDS011;62389;51.412;5.436;2024-01-30T03:07:07;11.88;;;5.25;;
74044;SDS011;62389;51.412;5.436;2024-01-30T03:09:33;10.45;;;5.45;;
74044;SDS011;62389;51.412;5.436;2024-01-30T03:11:58;9.27;;;5.65;;
74044;SDS011;62389;51.412;5.436;2024-01-30T03:14:24;7.45;;;4.35;;
74044;SDS011;62389;51.412;5.436;2024-01-30T03:16:49;9.50;;;5.28;;
74044;SDS011;62389;51.412;5.436;2024-01-30T03:19:15;9.15;;;4.68;;
74044;SDS011;62389;51.412;5.436;2024-01-30T03:21:40;8.45;;;5.05;;
74044;SDS011;62389;51.412;5.436;2024-01-30T03:24:05;9.90;;;5.30;;
74044;SDS011;62389;51.412;5.436;2024-01-30T03:26:31;8.35;;;5.30;;
74044;SDS011;62389;51.412;5.436;2024-01-30T03:28:56;7.95;;;4.45;;
74044;SDS011;62389;51.412;5.436;2024-01-30T03:31:21;9.32;;;5.53;;
74044;SDS011;62389;51.412;5.436;2024-01-30T03:33:47;8.27;;;4.85;;
74044;SDS011;62389;51.412;5.436;2024-01-30T03:36:12;8.35;;;4.82;;
74044;SDS011;62389;51.412;5.436;2024-01-30T03:38:38;7.43;;;4.78;;
74044;SDS011;62389;51.412;5.436;2024-01-30T03:41:03;10.15;;;4.75;;
74044;SDS011;62389;51.412;5.436;2024-01-30T03:43:32;9.52;;;5.35;;
74044;SDS011;62389;51.412;5.436;2024-01-30T03:45:57;8.25;;;4.95;;
74044;SDS011;62389;51.412;5.436;2024-01-30T03:48:23;8.73;;;5.13;;
74044;SDS011;62389;51.412;5.436;2024-01-30T03:50:48;8.10;;;5.07;;
74044;SDS011;62389;51.412;5.436;2024-01-30T03:53:13;7.68;;;4.45;;
74044;SDS011;62389;51.412;5.436;2024-01-30T03:55:39;7.38;;;4.70;;
74044;SDS011;62389;51.412;5.436;2024-01-30T03:58:04;10.45;;;5.22;;
74044;SDS011;62389;51.412;5.436;2024-01-30T04:00:29;9.32;;;5.35;;
74044;SDS011;62389;51.412;5.436;2024-01-30T04:02:55;9.80;;;5.13;;
74044;SDS011;62389;51.412;5.436;2024-01-30T04:05:20;9.35;;;4.82;;
74044;SDS011;62389;51.412;5.436;2024-01-30T04:07:46;8.63;;;4.80;;
74044;SDS011;62389;51.412;5.436;2024-01-30T04:10:11;7.10;;;4.47;;
74044;SDS011;62389;51.412;5.436;2024-01-30T04:12:36;7.53;;;4.35;;
74044;SDS011;62389;51.412;5.436;2024-01-30T04:15:02;10.50;;;4.90;;
74044;SDS011;62389;51.412;5.436;2024-01-30T04:17:28;8.15;;;4.65;;
74044;SDS011;62389;51.412;5.436;2024-01-30T04:19:54;6.43;;;4.22;;
74044;SDS011;62389;51.412;5.436;2024-01-30T04:22:20;8.73;;;3.92;;
74044;SDS011;62389;51.412;5.436;2024-01-30T04:24:45;7.78;;;5.00;;
74044;SDS011;62389;51.412;5.436;2024-01-30T04:27:10;8.70;;;4.60;;
74044;SDS011;62389;51.412;5.436;2024-01-30T04:29:36;6.40;;;4.20;;
74044;SDS011;62389;51.412;5.436;2024-01-30T04:32:01;10.10;;;4.47;;
74044;SDS011;62389;51.412;5.436;2024-01-30T04:34:26;7.95;;;4.22;;
74044;SDS011;62389;51.412;5.436;2024-01-30T04:36:52;7.50;;;4.30;;
74044;SDS011;62389;51.412;5.436;2024-01-30T04:39:17;11.23;;;4.72;;
74044;SDS011;62389;51.412;5.436;2024-01-30T04:41:42;8.60;;;4.43;;
74044;SDS011;62389;51.412;5.436;2024-01-30T04:44:08;8.05;;;4.85;;
74044;SDS011;62389;51.412;5.436;2024-01-30T04:46:33;7.57;;;4.60;;
74044;SDS011;62389;51.412;5.436;2024-01-30T04:49:01;8.18;;;4.38;;
74044;SDS011;62389;51.412;5.436;2024-01-30T04:51:28;7.53;;;4.63;;
74044;SDS011;62389;51.412;5.436;2024-01-30T04:53:54;7.90;;;4.78;;
74044;SDS011;62389;51.412;5.436;2024-01-30T04:56:20;5.88;;;4.07;;
74044;SDS011;62389;51.412;5.436;2024-01-30T04:58:45;10.32;;;4.75;;
74044;SDS011;62389;51.412;5.436;2024-01-30T05:01:14;6.43;;;4.22;;
74044;SDS011;62389;51.412;5.436;2024-01-30T05:03:40;6.38;;;4.22;;
74044;SDS011;62389;51.412;5.436;2024-01-30T05:06:05;6.90;;;4.10;;
74044;SDS011;62389;51.412;5.436;2024-01-30T05:08:31;7.43;;;4.25;;
74044;SDS011;62389;51.412;5.436;2024-01-30T05:10:59;7.07;;;4.30;;
74044;SDS011;62389;51.412;5.436;2024-01-30T05:13:25;8.73;;;4.88;;
74044;SDS011;62389;51.412;5.436;2024-01-30T05:15:50;7.28;;;4.47;;
74044;SDS011;62389;51.412;5.436;2024-01-30T05:18:16;6.68;;;4.47;;
74044;SDS011;62389;51.412;5.436;2024-01-30T05:20:41;7.95;;;4.15;;
74044;SDS011;62389;51.412;5.436;2024-01-30T05:23:07;8.48;;;4.15;;
74044;SDS011;62389;51.412;5.436;2024-01-30T05:25:33;7.95;;;4.28;;
74044;SDS011;62389;51.412;5.436;2024-01-30T05:27:58;6.50;;;4.00;;
74044;SDS011;62389;51.412;5.436;2024-01-30T05:30:23;10.43;;;5.22;;
74044;SDS011;62389;51.412;5.436;2024-01-30T05:32:49;7.65;;;4.60;;
74044;SDS011;62389;51.412;5.436;2024-01-30T05:35:14;8.23;;;4.50;;
74044;SDS011;62389;51.412;5.436;2024-01-30T05:37:40;7.45;;;4.13;;
74044;SDS011;62389;51.412;5.436;2024-01-30T05:40:05;9.35;;;4.68;;
74044;SDS011;62389;51.412;5.436;2024-01-30T05:42:31;9.40;;;4.15;;
74044;SDS011;62389;51.412;5.436;2024-01-30T05:44:57;8.23;;;4.50;;
74044;SDS011;62389;51.412;5.436;2024-01-30T05:47:22;7.45;;;4.72;;
74044;SDS011;62389;51.412;5.436;2024-01-30T05:49:47;6.40;;;3.70;;
74044;SDS011;62389;51.412;5.436;2024-01-30T05:52:13;7.38;;;4.28;;
74044;SDS011;62389;51.412;5.436;2024-01-30T05:54:40;8.50;;;4.28;;
74044;SDS011;62389;51.412;5.436;2024-01-30T05:57:06;9.00;;;4.00;;
74044;SDS011;62389;51.412;5.436;2024-01-30T05:59:32;5.80;;;3.63;;
74044;SDS011;62389;51.412;5.436;2024-01-30T06:01:57;10.13;;;4.80;;
74044;SDS011;62389;51.412;5.436;2024-01-30T06:04:23;7.13;;;4.32;;
74044;SDS011;62389;51.412;5.436;2024-01-30T06:06:48;8.77;;;4.18;;
74044;SDS011;62389;51.412;5.436;2024-01-30T06:09:13;6.53;;;4.15;;
74044;SDS011;62389;51.412;5.436;2024-01-30T06:11:39;6.97;;;4.57;;
74044;SDS011;62389;51.412;5.436;2024-01-30T06:14:04;6.70;;;3.65;;
74044;SDS011;62389;51.412;5.436;2024-01-30T06:16:30;6.85;;;3.80;;
74044;SDS011;62389;51.412;5.436;2024-01-30T06:18:56;8.55;;;4.30;;
74044;SDS011;62389;51.412;5.436;2024-01-30T06:21:21;7.95;;;3.95;;
74044;SDS011;62389;51.412;5.436;2024-01-30T06:23:49;6.47;;;3.63;;
74044;SDS011;62389;51.412;5.436;2024-01-30T06:26:14;7.03;;;3.97;;
74044;SDS011;62389;51.412;5.436;2024-01-30T06:28:40;9.65;;;4.20;;
74044;SDS011;62389;51.412;5.436;2024-01-30T06:31:05;6.65;;;3.97;;
74044;SDS011;62389;51.412;5.436;2024-01-30T06:33:30;7.80;;;4.68;;
74044;SDS011;62389;51.412;5.436;2024-01-30T06:35:56;8.20;;;4.45;;
74044;SDS011;62389;51.412;5.436;2024-01-30T06:38:21;8.27;;;4.88;;
74044;SDS011;62389;51.412;5.436;2024-01-30T06:40:46;6.40;;;3.85;;
74044;SDS011;62389;51.412;5.436;2024-01-30T06:43:12;7.78;;;3.75;;
74044;SDS011;62389;51.412;5.436;2024-01-30T06:45:37;7.53;;;4.50;;
74044;SDS011;62389;51.412;5.436;2024-01-30T06:48:03;8.52;;;4.30;;
74044;SDS011;62389;51.412;5.436;2024-01-30T06:50:28;8.65;;;4.15;;
74044;SDS011;62389;51.412;5.436;2024-01-30T06:52:54;8.05;;;3.85;;
74044;SDS011;62389;51.412;5.436;2024-01-30T06:55:19;7.05;;;3.72;;
74044;SDS011;62389;51.412;5.436;2024-01-30T06:57:44;6.15;;;3.92;;
74044;SDS011;62389;51.412;5.436;2024-01-30T07:00:10;8.98;;;4.18;;
74044;SDS011;62389;51.412;5.436;2024-01-30T07:02:36;7.00;;;4.15;;
74044;SDS011;62389;51.412;5.436;2024-01-30T07:05:01;8.45;;;4.15;;
74044;SDS011;62389;51.412;5.436;2024-01-30T07:07:28;8.63;;;4.53;;
74044;SDS011;62389;51.412;5.436;2024-01-30T07:09:53;7.60;;;4.13;;
74044;SDS011;62389;51.412;5.436;2024-01-30T07:12:22;7.25;;;4.07;;
74044;SDS011;62389;51.412;5.436;2024-01-30T07:14:49;7.28;;;4.25;;
74044;SDS011;62389;51.412;5.436;2024-01-30T07:17:15;6.88;;;3.83;;
74044;SDS011;62389;51.412;5.436;2024-01-30T07:19:40;7.22;;;4.40;;
74044;SDS011;62389;51.412;5.436;2024-01-30T07:22:06;7.68;;;3.95;;
74044;SDS011;62389;51.412;5.436;2024-01-30T07:24:31;7.50;;;3.97;;
74044;SDS011;62389;51.412;5.436;2024-01-30T07:26:57;6.30;;;4.28;;
74044;SDS011;62389;51.412;5.436;2024-01-30T07:29:22;8.18;;;4.28;;
74044;SDS011;62389;51.412;5.436;2024-01-30T07:31:47;6.80;;;3.72;;
74044;SDS011;62389;51.412;5.436;2024-01-30T07:34:13;6.90;;;3.85;;
74044;SDS011;62389;51.412;5.436;2024-01-30T07:36:38;9.02;;;4.35;;
74044;SDS011;62389;51.412;5.436;2024-01-30T07:39:04;7.95;;;4.35;;
74044;SDS011;62389;51.412;5.436;2024-01-30T07:41:29;9.25;;;4.82;;
74044;SDS011;62389;51.412;5.436;2024-01-30T07:43:55;7.05;;;4.25;;
74044;SDS011;62389;51.412;5.436;2024-01-30T07:46:20;7.97;;;4.95;;
74044;SDS011;62389;51.412;5.436;2024-01-30T07:48:45;8.35;;;3.88;;
74044;SDS011;62389;51.412;5.436;2024-01-30T07:51:11;8.68;;;5.05;;
74044;SDS011;62389;51.412;5.436;2024-01-30T07:53:36;8.20;;;4.28;;
74044;SDS011;62389;51.412;5.436;2024-01-30T07:56:02;8.55;;;5.20;;
74044;SDS011;62389;51.412;5.436;2024-01-30T07:58:27;7.80;;;4.88;;
74044;SDS011;62389;51.412;5.436;2024-01-30T08:00:53;8.35;;;4.80;;
74044;SDS011;62389;51.412;5.436;2024-01-30T08:03:18;7.18;;;4.55;;
74044;SDS011;62389;51.412;5.436;2024-01-30T08:05:44;8.10;;;4.03;;
74044;SDS011;62389;51.412;5.436;2024-01-30T08:08:09;7.05;;;4.32;;
74044;SDS011;62389;51.412;5.436;2024-01-30T08:10:35;8.55;;;5.03;;
74044;SDS011;62389;51.412;5.436;2024-01-30T08:13:01;8.68;;;4.60;;
74044;SDS011;62389;51.412;5.436;2024-01-30T08:15:27;8.23;;;5.38;;
74044;SDS011;62389;51.412;5.436;2024-01-30T08:17:52;8.98;;;4.43;;
74044;SDS011;62389;51.412;5.436;2024-01-30T08:20:23;9.48;;;3.85;;
74044;SDS011;62389;51.412;5.436;2024-01-30T08:22:49;8.85;;;5.05;;
74044;SDS011;62389;51.412;5.436;2024-01-30T08:25:14;11.18;;;4.65;;
74044;SDS011;62389;51.412;5.436;2024-01-30T08:27:40;10.35;;;4.82;;
74044;SDS011;62389;51.412;5.436;2024-01-30T08:30:06;9.60;;;5.07;;
74044;SDS011;62389;51.412;5.436;2024-01-30T08:32:32;10.20;;;5.10;;
74044;SDS011;62389;51.412;5.436;2024-01-30T08:34:57;9.07;;;4.80;;
74044;SDS011;62389;51.412;5.436;2024-01-30T08:37:23;8.90;;;4.93;;
74044;SDS011;62389;51.412;5.436;2024-01-30T08:39:48;10.52;;;5.85;;
74044;SDS011;62389;51.412;5.436;2024-01-30T08:42:14;7.03;;;4.20;;
74044;SDS011;62389;51.412;5.436;2024-01-30T08:44:39;7.82;;;4.82;;
74044;SDS011;62389;51.412;5.436;2024-01-30T08:47:05;8.40;;;5.15;;
74044;SDS011;62389;51.412;5.436;2024-01-30T08:49:30;10.23;;;5.30;;
74044;SDS011;62389;51.412;5.436;2024-01-30T08:51:56;8.18;;;4.88;;
74044;SDS011;62389;51.412;5.436;2024-01-30T08:54:21;8.45;;;4.68;;
74044;SDS011;62389;51.412;5.436;2024-01-30T08:56:47;9.27;;;5.07;;
74044;SDS011;62389;51.412;5.436;2024-01-30T08:59:13;8.85;;;4.82;;
74044;SDS011;62389;51.412;5.436;2024-01-30T09:01:38;8.95;;;5.00;;
74044;SDS011;62389;51.412;5.436;2024-01-30T09:04:04;10.93;;;5.10;;
74044;SDS011;62389;51.412;5.436;2024-01-30T09:06:29;9.95;;;4.68;;
74044;SDS011;62389;51.412;5.436;2024-01-30T09:08:55;8.73;;;4.93;;
74044;SDS011;62389;51.412;5.436;2024-01-30T09:11:20;8.15;;;4.53;;
74044;SDS011;62389;51.412;5.436;2024-01-30T09:13:45;10.63;;;5.03;;
74044;SDS011;62389;51.412;5.436;2024-01-30T09:16:11;6.97;;;4.55;;
74044;SDS011;62389;51.412;5.436;2024-01-30T09:18:36;11.35;;;4.97;;
74044;SDS011;62389;51.412;5.436;2024-01-30T09:21:01;9.43;;;5.25;;
74044;SDS011;62389;51.412;5.436;2024-01-30T09:23:27;11.93;;;4.78;;
74044;SDS011;62389;51.412;5.436;2024-01-30T09:25:53;8.50;;;4.03;;
74044;SDS011;62389;51.412;5.436;2024-01-30T09:28:18;7.68;;;4.70;;
74044;SDS011;62389;51.412;5.436;2024-01-30T09:30:44;8.18;;;5.05;;
74044;SDS011;62389;51.412;5.436;2024-01-30T09:33:09;9.25;;;4.60;;
74044;SDS011;62389;51.412;5.436;2024-01-30T09:35:35;9.77;;;4.75;;
74044;SDS011;62389;51.412;5.436;2024-01-30T09:38:01;8.25;;;4.57;;
74044;SDS011;62389;51.412;5.436;2024-01-30T09:40:27;9.90;;;4.93;;
74044;SDS011;62389;51.412;5.436;2024-01-30T09:42:53;10.00;;;5.35;;
74044;SDS011;62389;51.412;5.436;2024-01-30T09:45:19;8.45;;;4.60;;
74044;SDS011;62389;51.412;5.436;2024-01-30T09:47:48;8.60;;;5.15;;
74044;SDS011;62389;51.412;5.436;2024-01-30T09:50:14;10.02;;;4.35;;
74044;SDS011;62389;51.412;5.436;2024-01-30T09:52:40;8.48;;;4.32;;
74044;SDS011;62389;51.412;5.436;2024-01-30T09:55:07;13.23;;;4.68;;
74044;SDS011;62389;51.412;5.436;2024-01-30T09:57:33;9.68;;;5.00;;
74044;SDS011;62389;51.412;5.436;2024-01-30T09:59:59;9.85;;;4.68;;
74044;SDS011;62389;51.412;5.436;2024-01-30T10:02:24;9.75;;;4.97;;
74044;SDS011;62389;51.412;5.436;2024-01-30T10:04:50;9.57;;;4.82;;
74044;SDS011;62389;51.412;5.436;2024-01-30T10:07:17;8.60;;;5.32;;
74044;SDS011;62389;51.412;5.436;2024-01-30T10:09:43;14.75;;;4.88;;
74044;SDS011;62389;51.412;5.436;2024-01-30T10:12:09;9.80;;;5.13;;
74044;SDS011;62389;51.412;5.436;2024-01-30T10:14:37;10.68;;;5.25;;
74044;SDS011;62389;51.412;5.436;2024-01-30T10:17:03;8.32;;;4.30;;
74044;SDS011;62389;51.412;5.436;2024-01-30T10:19:30;9.65;;;5.40;;
74044;SDS011;62389;51.412;5.436;2024-01-30T10:21:56;10.73;;;5.50;;
74044;SDS011;62389;51.412;5.436;2024-01-30T10:24:24;11.32;;;5.30;;
74044;SDS011;62389;51.412;5.436;2024-01-30T10:26:50;11.52;;;5.65;;
74044;SDS011;62389;51.412;5.436;2024-01-30T10:29:16;13.13;;;5.35;;
74044;SDS011;62389;51.412;5.436;2024-01-30T10:31:42;10.38;;;5.45;;
74044;SDS011;62389;51.412;5.436;2024-01-30T10:34:07;9.63;;;5.55;;
74044;SDS011;62389;51.412;5.436;2024-01-30T10:36:33;9.15;;;4.97;;
74044;SDS011;62389;51.412;5.436;2024-01-30T10:41:31;9.37;;;4.77;;
74044;SDS011;62389;51.412;5.436;2024-01-30T10:44:08;9.00;;;4.93;;
74044;SDS011;62389;51.412;5.436;2024-01-30T10:46:35;9.25;;;5.07;;
74044;SDS011;62389;51.412;5.436;2024-01-30T10:49:02;9.40;;;5.10;;
74044;SDS011;62389;51.412;5.436;2024-01-30T10:51:31;9.38;;;5.35;;
74044;SDS011;62389;51.412;5.436;2024-01-30T10:53:57;11.23;;;5.00;;
74044;SDS011;62389;51.412;5.436;2024-01-30T10:56:23;7.80;;;4.72;;
74044;SDS011;62389;51.412;5.436;2024-01-30T10:58:52;9.48;;;4.85;;
74044;SDS011;62389;51.412;5.436;2024-01-30T11:01:19;10.30;;;5.70;;
74044;SDS011;62389;51.412;5.436;2024-01-30T11:03:48;9.93;;;4.57;;
74044;SDS011;62389;51.412;5.436;2024-01-30T11:06:15;9.80;;;5.38;;
74044;SDS011;62389;51.412;5.436;2024-01-30T11:08:43;11.52;;;5.50;;
74044;SDS011;62389;51.412;5.436;2024-01-30T11:11:24;13.38;;;6.38;;
74044;SDS011;62389;51.412;5.436;2024-01-30T11:13:50;13.60;;;4.97;;
74044;SDS011;62389;51.412;5.436;2024-01-30T11:16:15;8.27;;;4.90;;
74044;SDS011;62389;51.412;5.436;2024-01-30T11:18:40;14.45;;;5.93;;
74044;SDS011;62389;51.412;5.436;2024-01-30T11:21:06;12.35;;;5.93;;
74044;SDS011;62389;51.412;5.436;2024-01-30T11:23:33;8.90;;;5.43;;
74044;SDS011;62389;51.412;5.436;2024-01-30T11:25:59;9.85;;;6.13;;
74044;SDS011;62389;51.412;5.436;2024-01-30T11:28:25;17.17;;;6.10;;
74044;SDS011;62389;51.412;5.436;2024-01-30T11:31:04;10.20;;;5.50;;
74044;SDS011;62389;51.412;5.436;2024-01-30T11:33:31;10.20;;;5.40;;
74044;SDS011;62389;51.412;5.436;2024-01-30T11:35:58;11.95;;;4.97;;
74044;SDS011;62389;51.412;5.436;2024-01-30T11:38:26;11.75;;;5.60;;
74044;SDS011;62389;51.412;5.436;2024-01-30T11:40:52;12.25;;;5.47;;
74044;SDS011;62389;51.412;5.436;2024-01-30T11:43:22;10.50;;;5.25;;
74044;SDS011;62389;51.412;5.436;2024-01-30T11:45:48;9.73;;;4.85;;
74044;SDS011;62389;51.412;5.436;2024-01-30T11:48:14;10.52;;;4.53;;
74044;SDS011;62389;51.412;5.436;2024-01-30T11:50:40;9.18;;;4.32;;
74044;SDS011;62389;51.412;5.436;2024-01-30T11:53:09;10.13;;;5.72;;
74044;SDS011;62389;51.412;5.436;2024-01-30T11:55:35;6.22;;;3.97;;
74044;SDS011;62389;51.412;5.436;2024-01-30T11:58:02;7.65;;;4.15;;
74044;SDS011;62389;51.412;5.436;2024-01-30T12:00:29;9.10;;;3.92;;
74044;SDS011;62389;51.412;5.436;2024-01-30T12:02:56;6.85;;;4.57;;
74044;SDS011;62389;51.412;5.436;2024-01-30T12:05:22;8.23;;;4.85;;
74044;SDS011;62389;51.412;5.436;2024-01-30T12:07:48;7.50;;;4.25;;
74044;SDS011;62389;51.412;5.436;2024-01-30T12:10:14;9.45;;;4.20;;
74044;SDS011;62389;51.412;5.436;2024-01-30T12:12:40;7.13;;;3.47;;
74044;SDS011;62389;51.412;5.436;2024-01-30T12:15:07;7.30;;;3.60;;
74044;SDS011;62389;51.412;5.436;2024-01-30T12:17:34;7.47;;;3.88;;
74044;SDS011;62389;51.412;5.436;2024-01-30T12:20:06;11.75;;;5.40;;
74044;SDS011;62389;51.412;5.436;2024-01-30T12:22:36;8.18;;;5.38;;
74044;SDS011;62389;51.412;5.436;2024-01-30T12:25:08;10.07;;;5.07;;
74044;SDS011;62389;51.412;5.436;2024-01-30T12:27:35;13.35;;;5.35;;
74044;SDS011;62389;51.412;5.436;2024-01-30T12:30:02;9.93;;;5.40;;
74044;SDS011;62389;51.412;5.436;2024-01-30T12:32:30;9.38;;;5.32;;
74044;SDS011;62389;51.412;5.436;2024-01-30T12:34:55;8.73;;;3.72;;
74044;SDS011;62389;51.412;5.436;2024-01-30T12:37:22;7.10;;;3.30;;
74044;SDS011;62389;51.412;5.436;2024-01-30T12:39:49;5.20;;;2.60;;
74044;SDS011;62389;51.412;5.436;2024-01-30T12:42:17;9.20;;;3.17;;
74044;SDS011;62389;51.412;5.436;2024-01-30T12:44:44;6.80;;;2.53;;
74044;SDS011;62389;51.412;5.436;2024-01-30T12:47:09;5.13;;;2.45;;
74044;SDS011;62389;51.412;5.436;2024-01-30T12:49:35;3.17;;;1.83;;
74044;SDS011;62389;51.412;5.436;2024-01-30T12:52:00;5.88;;;1.90;;
74044;SDS011;62389;51.412;5.436;2024-01-30T12:54:26;3.92;;;1.38;;
74044;SDS011;62389;51.412;5.436;2024-01-30T12:56:51;3.30;;;1.40;;
74044;SDS011;62389;51.412;5.436;2024-01-30T12:59:17;5.30;;;1.33;;
74044;SDS011;62389;51.412;5.436;2024-01-30T13:01:42;5.07;;;1.33;;
74044;SDS011;62389;51.412;5.436;2024-01-30T13:04:08;3.58;;;0.82;;
74044;SDS011;62389;51.412;5.436;2024-01-30T13:06:33;2.85;;;0.85;;
74044;SDS011;62389;51.412;5.436;2024-01-30T13:08:58;5.25;;;0.80;;
74044;SDS011;62389;51.412;5.436;2024-01-30T13:11:24;4.13;;;0.88;;
74044;SDS011;62389;51.412;5.436;2024-01-30T13:13:50;0.98;;;0.55;;
74044;SDS011;62389;51.412;5.436;2024-01-30T13:16:16;2.25;;;0.90;;
74044;SDS011;62389;51.412;5.436;2024-01-30T13:18:41;4.72;;;0.70;;
74044;SDS011;62389;51.412;5.436;2024-01-30T13:21:07;1.48;;;0.70;;
74044;SDS011;62389;51.412;5.436;2024-01-30T13:23:32;2.72;;;0.93;;
74044;SDS011;62389;51.412;5.436;2024-01-30T13:25:58;2.22;;;0.55;;
74044;SDS011;62389;51.412;5.436;2024-01-30T13:28:23;3.35;;;0.70;;
74044;SDS011;62389;51.412;5.436;2024-01-30T13:30:50;2.05;;;0.73;;
74044;SDS011;62389;51.412;5.436;2024-01-30T13:33:16;2.78;;;0.65;;
74044;SDS011;62389;51.412;5.436;2024-01-30T13:35:41;3.35;;;0.70;;
74044;SDS011;62389;51.412;5.436;2024-01-30T13:38:07;4.00;;;0.88;;
74044;SDS011;62389;51.412;5.436;2024-01-30T13:40:33;1.95;;;0.70;;
74044;SDS011;62389;51.412;5.436;2024-01-30T13:42:58;3.17;;;0.70;;
74044;SDS011;62389;51.412;5.436;2024-01-30T13:45:24;3.78;;;1.00;;
74044;SDS011;62389;51.412;5.436;2024-01-30T13:47:49;3.70;;;0.73;;
74044;SDS011;62389;51.412;5.436;2024-01-30T13:50:14;2.65;;;0.52;;
74044;SDS011;62389;51.412;5.436;2024-01-30T13:52:41;2.28;;;0.80;;
74044;SDS011;62389;51.412;5.436;2024-01-30T13:55:10;2.83;;;0.82;;
74044;SDS011;62389;51.412;5.436;2024-01-30T13:57:36;1.90;;;0.90;;
74044;SDS011;62389;51.412;5.436;2024-01-30T14:00:03;1.80;;;0.80;;
74044;SDS011;62389;51.412;5.436;2024-01-30T14:02:31;2.50;;;0.98;;
74044;SDS011;62389;51.412;5.436;2024-01-30T14:04:56;3.03;;;0.85;;
74044;SDS011;62389;51.412;5.436;2024-01-30T14:07:22;2.10;;;0.93;;
74044;SDS011;62389;51.412;5.436;2024-01-30T14:09:47;3.00;;;0.90;;
74044;SDS011;62389;51.412;5.436;2024-01-30T14:12:13;3.78;;;1.00;;
74044;SDS011;62389;51.412;5.436;2024-01-30T14:14:39;2.83;;;0.80;;
74044;SDS011;62389;51.412;5.436;2024-01-30T14:17:05;2.38;;;0.77;;
74044;SDS011;62389;51.412;5.436;2024-01-30T14:19:32;4.68;;;1.13;;
74044;SDS011;62389;51.412;5.436;2024-01-30T14:21:58;2.97;;;0.93;;
74044;SDS011;62389;51.412;5.436;2024-01-30T14:24:23;2.95;;;0.80;;
74044;SDS011;62389;51.412;5.436;2024-01-30T14:26:48;4.00;;;1.13;;
74044;SDS011;62389;51.412;5.436;2024-01-30T14:29:14;4.80;;;1.05;;
74044;SDS011;62389;51.412;5.436;2024-01-30T14:31:39;2.03;;;0.98;;
74044;SDS011;62389;51.412;5.436;2024-01-30T14:34:05;3.33;;;0.85;;
74044;SDS011;62389;51.412;5.436;2024-01-30T14:36:30;5.10;;;1.08;;
74044;SDS011;62389;51.412;5.436;2024-01-30T14:38:55;5.28;;;1.02;;
74044;SDS011;62389;51.412;5.436;2024-01-30T14:41:21;4.80;;;1.27;;